sensor_id;sensor_type;location;lat;lon;timestamp;pressure;altitude;pressure_sealevel;temperature;humidity
21644;BME280;10983;51.982;9.226;2023-04-22T00:00:24;65387.91;;;-139.23;100.00
21644;BME280;10983;51.982;9.226;2023-04-22T00:02:52;65387.91;;;-139.23;100.00
21644;BME280;10983;51.982;9.226;2023-04-22T00:05:21;65387.91;;;-139.23;100.00
21644;BME280;10983;51.982;9.226;2023-04-22T00:07:49;65387.91;;;-139.23;100.00
21644;BME280;10983;51.982;9.226;2023-04-22T00:10:17;65387.91;;;-139.23;100.00
21644;BME280;10983;51.982;9.226;2023-04-22T00:12:45;65387.91;;;-139.23;100.00
21644;BME280;10983;51.982;9.226;2023-04-22T00:15:12;65387.91;;;-139.23;100.00
21644;BME280;10983;51.982;9.226;2023-04-22T00:17:39;65387.91;;;-139.23;100.00
21644;BME280;10983;51.982;9.226;2023-04-22T00:20:09;65387.91;;;-139.23;100.00
21644;BME280;10983;51.982;9.226;2023-04-22T00:22:36;65387.91;;;-139.23;100.00
21644;BME280;10983;51.982;9.226;2023-04-22T00:25:05;65387.91;;;-139.23;100.00
21644;BME280;10983;51.982;9.226;2023-04-22T00:27:33;65387.91;;;-139.23;100.00
21644;BME280;10983;51.982;9.226;2023-04-22T00:30:01;65387.91;;;-139.23;100.00
21644;BME280;10983;51.982;9.226;2023-04-22T00:32:28;65387.91;;;-139.23;100.00
21644;BME280;10983;51.982;9.226;2023-04-22T00:34:56;65387.91;;;-139.23;100.00
21644;BME280;10983;51.982;9.226;2023-04-22T00:37:23;65387.91;;;-139.23;100.00
21644;BME280;10983;51.982;9.226;2023-04-22T00:39:51;65387.91;;;-139.23;100.00
21644;BME280;10983;51.982;9.226;2023-04-22T00:42:20;65387.91;;;-139.23;100.00
21644;BME280;10983;51.982;9.226;2023-04-22T00:44:50;65387.91;;;-139.23;100.00
21644;BME280;10983;51.982;9.226;2023-04-22T00:47:17;65387.91;;;-139.23;100.00
21644;BME280;10983;51.982;9.226;2023-04-22T00:49:48;65387.91;;;-139.23;100.00
21644;BME280;10983;51.982;9.226;2023-04-22T00:52:16;65387.91;;;-139.23;100.00
21644;BME280;10983;51.982;9.226;2023-04-22T00:54:43;65387.91;;;-139.23;100.00
21644;BME280;10983;51.982;9.226;2023-04-22T00:57:12;65387.91;;;-139.23;100.00
21644;BME280;10983;51.982;9.226;2023-04-22T00:59:39;65387.91;;;-139.23;100.00
21644;BME280;10983;51.982;9.226;2023-04-22T01:02:08;65387.91;;;-139.23;100.00
21644;BME280;10983;51.982;9.226;2023-04-22T01:04:37;65387.91;;;-139.23;100.00
21644;BME280;10983;51.982;9.226;2023-04-22T01:07:05;65387.91;;;-139.23;100.00
21644;BME280;10983;51.982;9.226;2023-04-22T01:09:33;65387.91;;;-139.23;100.00
21644;BME280;10983;51.982;9.226;2023-04-22T01:12:01;65387.91;;;-139.23;100.00
21644;BME280;10983;51.982;9.226;2023-04-22T01:14:28;65387.91;;;-139.23;100.00
21644;BME280;10983;51.982;9.226;2023-04-22T01:16:56;65387.91;;;-139.23;100.00
21644;BME280;10983;51.982;9.226;2023-04-22T01:19:25;65387.91;;;-139.23;100.00
21644;BME280;10983;51.982;9.226;2023-04-22T01:21:55;65387.91;;;-139.23;100.00
21644;BME280;10983;51.982;9.226;2023-04-22T01:24:23;65387.91;;;-139.23;100.00
21644;BME280;10983;51.982;9.226;2023-04-22T01:26:51;65387.91;;;-139.23;100.00
21644;BME280;10983;51.982;9.226;2023-04-22T01:29:19;65387.91;;;-139.23;100.00
21644;BME280;10983;51.982;9.226;2023-04-22T01:31:46;65387.91;;;-139.23;100.00
21644;BME280;10983;51.982;9.226;2023-04-22T01:34:14;65387.91;;;-139.23;100.00
21644;BME280;10983;51.982;9.226;2023-04-22T01:36:42;65387.91;;;-139.23;100.00
21644;BME280;10983;51.982;9.226;2023-04-22T01:39:10;65387.91;;;-139.23;100.00
21644;BME280;10983;51.982;9.226;2023-04-22T01:41:39;65387.91;;;-139.23;100.00
21644;BME280;10983;51.982;9.226;2023-04-22T01:44:07;65387.91;;;-139.23;100.00
21644;BME280;10983;51.982;9.226;2023-04-22T01:46:34;65387.91;;;-139.23;100.00
21644;BME280;10983;51.982;9.226;2023-04-22T01:49:02;65387.91;;;-139.23;100.00
21644;BME280;10983;51.982;9.226;2023-04-22T01:51:30;65387.91;;;-139.23;100.00
21644;BME280;10983;51.982;9.226;2023-04-22T01:53:57;65387.91;;;-139.23;100.00
21644;BME280;10983;51.982;9.226;2023-04-22T01:56:24;65387.91;;;-139.23;100.00
21644;BME280;10983;51.982;9.226;2023-04-22T01:58:53;65387.91;;;-139.23;100.00
21644;BME280;10983;51.982;9.226;2023-04-22T02:01:21;65387.91;;;-139.23;100.00
21644;BME280;10983;51.982;9.226;2023-04-22T02:03:48;65387.91;;;-139.23;100.00
21644;BME280;10983;51.982;9.226;2023-04-22T02:06:16;65387.91;;;-139.23;100.00
21644;BME280;10983;51.982;9.226;2023-04-22T02:08:43;65387.91;;;-139.23;100.00
21644;BME280;10983;51.982;9.226;2023-04-22T02:11:11;65387.91;;;-139.23;100.00
21644;BME280;10983;51.982;9.226;2023-04-22T02:13:39;65387.91;;;-139.23;100.00
21644;BME280;10983;51.982;9.226;2023-04-22T02:16:08;65387.91;;;-139.23;100.00
21644;BME280;10983;51.982;9.226;2023-04-22T02:18:36;65387.91;;;-139.23;100.00
21644;BME280;10983;51.982;9.226;2023-04-22T02:21:04;65387.91;;;-139.23;100.00
21644;BME280;10983;51.982;9.226;2023-04-22T02:23:31;65387.91;;;-139.23;100.00
21644;BME280;10983;51.982;9.226;2023-04-22T02:25:59;65387.91;;;-139.23;100.00
21644;BME280;10983;51.982;9.226;2023-04-22T02:28:28;65387.91;;;-139.23;100.00
21644;BME280;10983;51.982;9.226;2023-04-22T02:30:55;65387.91;;;-139.23;100.00
21644;BME280;10983;51.982;9.226;2023-04-22T02:33:24;65387.91;;;-139.23;100.00
21644;BME280;10983;51.982;9.226;2023-04-22T02:35:52;65387.91;;;-139.23;100.00
21644;BME280;10983;51.982;9.226;2023-04-22T02:38:19;65387.91;;;-139.23;100.00
21644;BME280;10983;51.982;9.226;2023-04-22T02:40:46;65387.91;;;-139.23;100.00
21644;BME280;10983;51.982;9.226;2023-04-22T02:43:14;65387.91;;;-139.23;100.00
21644;BME280;10983;51.982;9.226;2023-04-22T02:45:41;65387.91;;;-139.23;100.00
21644;BME280;10983;51.982;9.226;2023-04-22T02:48:08;65387.91;;;-139.23;100.00
21644;BME280;10983;51.982;9.226;2023-04-22T02:50:37;65387.91;;;-139.23;100.00
21644;BME280;10983;51.982;9.226;2023-04-22T02:53:05;65387.91;;;-139.23;100.00
21644;BME280;10983;51.982;9.226;2023-04-22T02:55:32;65387.91;;;-139.23;100.00
21644;BME280;10983;51.982;9.226;2023-04-22T02:57:59;65387.91;;;-139.23;100.00
21644;BME280;10983;51.982;9.226;2023-04-22T03:00:28;65387.91;;;-139.23;100.00
21644;BME280;10983;51.982;9.226;2023-04-22T03:02:55;65387.91;;;-139.23;100.00
21644;BME280;10983;51.982;9.226;2023-04-22T03:05:23;65387.91;;;-139.23;100.00
21644;BME280;10983;51.982;9.226;2023-04-22T03:07:52;65387.91;;;-139.23;100.00
21644;BME280;10983;51.982;9.226;2023-04-22T03:10:20;65387.91;;;-139.23;100.00
21644;BME280;10983;51.982;9.226;2023-04-22T03:12:47;65387.91;;;-139.23;100.00
21644;BME280;10983;51.982;9.226;2023-04-22T03:15:15;65387.91;;;-139.23;100.00
21644;BME280;10983;51.982;9.226;2023-04-22T03:17:46;65387.91;;;-139.23;100.00
21644;BME280;10983;51.982;9.226;2023-04-22T03:20:14;65387.91;;;-139.23;100.00
21644;BME280;10983;51.982;9.226;2023-04-22T03:22:43;65387.91;;;-139.23;100.00
21644;BME280;10983;51.982;9.226;2023-04-22T03:25:11;65387.91;;;-139.23;100.00
21644;BME280;10983;51.982;9.226;2023-04-22T03:27:39;65387.91;;;-139.23;100.00
21644;BME280;10983;51.982;9.226;2023-04-22T03:30:07;65387.91;;;-139.23;100.00
21644;BME280;10983;51.982;9.226;2023-04-22T03:32:35;65387.91;;;-139.23;100.00
21644;BME280;10983;51.982;9.226;2023-04-22T03:35:02;65387.91;;;-139.23;100.00
21644;BME280;10983;51.982;9.226;2023-04-22T03:37:30;65387.91;;;-139.23;100.00
21644;BME280;10983;51.982;9.226;2023-04-22T03:39:57;65387.91;;;-139.23;100.00
21644;BME280;10983;51.982;9.226;2023-04-22T03:42:26;65387.91;;;-139.23;100.00
21644;BME280;10983;51.982;9.226;2023-04-22T03:44:53;65387.91;;;-139.23;100.00
21644;BME280;10983;51.982;9.226;2023-04-22T03:47:20;65387.91;;;-139.23;100.00
21644;BME280;10983;51.982;9.226;2023-04-22T03:49:48;65387.91;;;-139.23;100.00
21644;BME280;10983;51.982;9.226;2023-04-22T03:52:15;65387.91;;;-139.23;100.00
21644;BME280;10983;51.982;9.226;2023-04-22T03:54:43;65387.91;;;-139.23;100.00
21644;BME280;10983;51.982;9.226;2023-04-22T03:57:10;65387.91;;;-139.23;100.00
21644;BME280;10983;51.982;9.226;2023-04-22T03:59:39;65387.91;;;-139.23;100.00
21644;BME280;10983;51.982;9.226;2023-04-22T04:02:07;65387.91;;;-139.23;100.00
21644;BME280;10983;51.982;9.226;2023-04-22T04:04:34;65387.91;;;-139.23;100.00
21644;BME280;10983;51.982;9.226;2023-04-22T04:07:02;65387.91;;;-139.23;100.00
21644;BME280;10983;51.982;9.226;2023-04-22T04:09:31;65387.91;;;-139.23;100.00
21644;BME280;10983;51.982;9.226;2023-04-22T04:11:59;65387.91;;;-139.23;100.00
21644;BME280;10983;51.982;9.226;2023-04-22T04:14:28;65387.91;;;-139.23;100.00
21644;BME280;10983;51.982;9.226;2023-04-22T04:16:57;65387.91;;;-139.23;100.00
21644;BME280;10983;51.982;9.226;2023-04-22T04:19:24;65387.91;;;-139.23;100.00
21644;BME280;10983;51.982;9.226;2023-04-22T04:21:52;65387.91;;;-139.23;100.00
21644;BME280;10983;51.982;9.226;2023-04-22T04:24:19;65387.91;;;-139.23;100.00
21644;BME280;10983;51.982;9.226;2023-04-22T04:26:46;65387.91;;;-139.23;100.00
21644;BME280;10983;51.982;9.226;2023-04-22T04:29:14;65387.91;;;-139.23;100.00
21644;BME280;10983;51.982;9.226;2023-04-22T04:31:45;65387.91;;;-139.23;100.00
21644;BME280;10983;51.982;9.226;2023-04-22T04:34:15;65387.91;;;-139.23;100.00
21644;BME280;10983;51.982;9.226;2023-04-22T04:36:42;65387.91;;;-139.23;100.00
21644;BME280;10983;51.982;9.226;2023-04-22T04:39:11;65387.91;;;-139.23;100.00
21644;BME280;10983;51.982;9.226;2023-04-22T04:41:43;65387.91;;;-139.23;100.00
21644;BME280;10983;51.982;9.226;2023-04-22T04:44:11;65387.91;;;-139.23;100.00
21644;BME280;10983;51.982;9.226;2023-04-22T04:46:38;65387.91;;;-139.23;100.00
21644;BME280;10983;51.982;9.226;2023-04-22T04:49:06;65387.91;;;-139.23;100.00
21644;BME280;10983;51.982;9.226;2023-04-22T04:51:39;65387.91;;;-139.23;100.00
21644;BME280;10983;51.982;9.226;2023-04-22T04:54:06;65387.91;;;-139.23;100.00
21644;BME280;10983;51.982;9.226;2023-04-22T04:56:33;65387.91;;;-139.23;100.00
21644;BME280;10983;51.982;9.226;2023-04-22T04:59:01;65387.91;;;-139.23;100.00
21644;BME280;10983;51.982;9.226;2023-04-22T05:01:28;65387.91;;;-139.23;100.00
21644;BME280;10983;51.982;9.226;2023-04-22T05:03:56;65387.91;;;-139.23;100.00
21644;BME280;10983;51.982;9.226;2023-04-22T05:06:23;65387.91;;;-139.23;100.00
21644;BME280;10983;51.982;9.226;2023-04-22T05:08:53;65387.91;;;-139.23;100.00
21644;BME280;10983;51.982;9.226;2023-04-22T05:11:21;65387.91;;;-139.23;100.00
21644;BME280;10983;51.982;9.226;2023-04-22T05:13:48;65387.91;;;-139.23;100.00
21644;BME280;10983;51.982;9.226;2023-04-22T05:16:15;65387.91;;;-139.23;100.00
21644;BME280;10983;51.982;9.226;2023-04-22T05:18:43;65387.91;;;-139.23;100.00
21644;BME280;10983;51.982;9.226;2023-04-22T05:21:10;65387.91;;;-139.23;100.00
21644;BME280;10983;51.982;9.226;2023-04-22T05:23:37;65387.91;;;-139.23;100.00
21644;BME280;10983;51.982;9.226;2023-04-22T05:26:06;65387.91;;;-139.23;100.00
21644;BME280;10983;51.982;9.226;2023-04-22T05:28:34;65387.91;;;-139.23;100.00
21644;BME280;10983;51.982;9.226;2023-04-22T05:31:01;65387.91;;;-139.23;100.00
21644;BME280;10983;51.982;9.226;2023-04-22T05:33:29;65387.91;;;-139.23;100.00
21644;BME280;10983;51.982;9.226;2023-04-22T05:35:56;65387.91;;;-139.23;100.00
21644;BME280;10983;51.982;9.226;2023-04-22T05:38:23;65387.91;;;-139.23;100.00
21644;BME280;10983;51.982;9.226;2023-04-22T05:40:51;65387.91;;;-139.23;100.00
21644;BME280;10983;51.982;9.226;2023-04-22T05:43:20;65387.91;;;-139.23;100.00
21644;BME280;10983;51.982;9.226;2023-04-22T05:45:47;65387.91;;;-139.23;100.00
21644;BME280;10983;51.982;9.226;2023-04-22T05:48:14;65387.91;;;-139.23;100.00
21644;BME280;10983;51.982;9.226;2023-04-22T05:50:42;65387.91;;;-139.23;100.00
21644;BME280;10983;51.982;9.226;2023-04-22T05:53:12;65387.91;;;-139.23;100.00
21644;BME280;10983;51.982;9.226;2023-04-22T05:55:39;65387.91;;;-139.23;100.00
21644;BME280;10983;51.982;9.226;2023-04-22T05:58:07;65387.91;;;-139.23;100.00
21644;BME280;10983;51.982;9.226;2023-04-22T06:00:35;65387.91;;;-139.23;100.00
21644;BME280;10983;51.982;9.226;2023-04-22T06:03:03;65387.91;;;-139.23;100.00
21644;BME280;10983;51.982;9.226;2023-04-22T06:05:30;65387.91;;;-139.23;100.00
21644;BME280;10983;51.982;9.226;2023-04-22T06:07:58;65387.91;;;-139.23;100.00
21644;BME280;10983;51.982;9.226;2023-04-22T06:10:25;65387.91;;;-139.23;100.00
21644;BME280;10983;51.982;9.226;2023-04-22T06:12:54;65387.91;;;-139.23;100.00
21644;BME280;10983;51.982;9.226;2023-04-22T06:15:24;65387.91;;;-139.23;100.00
21644;BME280;10983;51.982;9.226;2023-04-22T06:17:52;65387.91;;;-139.23;100.00
21644;BME280;10983;51.982;9.226;2023-04-22T06:20:20;65387.91;;;-139.23;100.00
21644;BME280;10983;51.982;9.226;2023-04-22T06:22:47;65387.91;;;-139.23;100.00
21644;BME280;10983;51.982;9.226;2023-04-22T06:25:15;65387.91;;;-139.23;100.00
21644;BME280;10983;51.982;9.226;2023-04-22T06:27:42;65387.91;;;-139.23;100.00
21644;BME280;10983;51.982;9.226;2023-04-22T06:30:10;65387.91;;;-139.23;100.00
21644;BME280;10983;51.982;9.226;2023-04-22T06:32:38;65387.91;;;-139.23;100.00
21644;BME280;10983;51.982;9.226;2023-04-22T06:35:07;65387.91;;;-139.23;100.00
21644;BME280;10983;51.982;9.226;2023-04-22T06:37:35;65387.91;;;-139.23;100.00
21644;BME280;10983;51.982;9.226;2023-04-22T06:40:03;65387.91;;;-139.23;100.00
21644;BME280;10983;51.982;9.226;2023-04-22T06:42:30;65387.91;;;-139.23;100.00
21644;BME280;10983;51.982;9.226;2023-04-22T06:44:58;65387.91;;;-139.23;100.00
21644;BME280;10983;51.982;9.226;2023-04-22T06:47:25;65387.91;;;-139.23;100.00
21644;BME280;10983;51.982;9.226;2023-04-22T06:49:53;65387.91;;;-139.23;100.00
21644;BME280;10983;51.982;9.226;2023-04-22T06:52:21;65387.91;;;-139.23;100.00
21644;BME280;10983;51.982;9.226;2023-04-22T06:54:49;65387.91;;;-139.23;100.00
21644;BME280;10983;51.982;9.226;2023-04-22T06:57:18;65387.91;;;-139.23;100.00
21644;BME280;10983;51.982;9.226;2023-04-22T06:59:46;65387.91;;;-139.23;100.00
21644;BME280;10983;51.982;9.226;2023-04-22T07:02:13;65387.91;;;-139.23;100.00
21644;BME280;10983;51.982;9.226;2023-04-22T07:04:41;65387.91;;;-139.23;100.00
21644;BME280;10983;51.982;9.226;2023-04-22T07:07:08;65387.91;;;-139.23;100.00
21644;BME280;10983;51.982;9.226;2023-04-22T07:09:37;65387.91;;;-139.23;100.00
21644;BME280;10983;51.982;9.226;2023-04-22T07:12:05;65387.91;;;-139.23;100.00
21644;BME280;10983;51.982;9.226;2023-04-22T07:14:33;65387.91;;;-139.23;100.00
21644;BME280;10983;51.982;9.226;2023-04-22T07:17:00;65387.91;;;-139.23;100.00
21644;BME280;10983;51.982;9.226;2023-04-22T07:19:27;65387.91;;;-139.23;100.00
21644;BME280;10983;51.982;9.226;2023-04-22T07:21:55;65387.91;;;-139.23;100.00
21644;BME280;10983;51.982;9.226;2023-04-22T07:24:22;65387.91;;;-139.23;100.00
21644;BME280;10983;51.982;9.226;2023-04-22T07:26:51;65387.91;;;-139.23;100.00
21644;BME280;10983;51.982;9.226;2023-04-22T07:29:18;65387.91;;;-139.23;100.00
21644;BME280;10983;51.982;9.226;2023-04-22T07:31:48;65387.91;;;-139.23;100.00
21644;BME280;10983;51.982;9.226;2023-04-22T07:34:17;65387.91;;;-139.23;100.00
21644;BME280;10983;51.982;9.226;2023-04-22T07:36:44;65387.91;;;-139.23;100.00
21644;BME280;10983;51.982;9.226;2023-04-22T07:39:12;65387.91;;;-139.23;100.00
21644;BME280;10983;51.982;9.226;2023-04-22T07:41:39;65387.91;;;-139.23;100.00
21644;BME280;10983;51.982;9.226;2023-04-22T07:44:08;65387.91;;;-139.23;100.00
21644;BME280;10983;51.982;9.226;2023-04-22T07:46:38;65387.91;;;-139.23;100.00
21644;BME280;10983;51.982;9.226;2023-04-22T07:49:05;65387.91;;;-139.23;100.00
21644;BME280;10983;51.982;9.226;2023-04-22T07:51:32;65387.91;;;-139.23;100.00
21644;BME280;10983;51.982;9.226;2023-04-22T07:54:00;65387.91;;;-139.23;100.00
21644;BME280;10983;51.982;9.226;2023-04-22T07:56:28;65387.91;;;-139.23;100.00
21644;BME280;10983;51.982;9.226;2023-04-22T07:58:55;65387.91;;;-139.23;100.00
21644;BME280;10983;51.982;9.226;2023-04-22T08:01:24;65387.91;;;-139.23;100.00
21644;BME280;10983;51.982;9.226;2023-04-22T08:03:51;65387.91;;;-139.23;100.00
21644;BME280;10983;51.982;9.226;2023-04-22T08:06:19;65387.91;;;-139.23;100.00
21644;BME280;10983;51.982;9.226;2023-04-22T08:08:47;100129.38;;;8.81;100.00
21644;BME280;10983;51.982;9.226;2023-04-22T08:11:16;100129.38;;;8.81;100.00
21644;BME280;10983;51.982;9.226;2023-04-22T08:13:43;100129.38;;;8.81;100.00
21644;BME280;10983;51.982;9.226;2023-04-22T08:16:11;99631.94;;;20.63;100.00
21644;BME280;10983;51.982;9.226;2023-04-22T08:18:40;99631.94;;;20.63;100.00
21644;BME280;10983;51.982;9.226;2023-04-22T08:21:07;99635.16;;;21.08;100.00
21644;BME280;10983;51.982;9.226;2023-04-22T08:23:34;99625.09;;;21.31;100.00
21644;BME280;10983;51.982;9.226;2023-04-22T08:26:02;99624.00;;;21.32;100.00
21644;BME280;10983;51.982;9.226;2023-04-22T08:28:29;99624.00;;;21.32;100.00
21644;BME280;10983;51.982;9.226;2023-04-22T08:30:57;99620.66;;;21.65;100.00
21644;BME280;10983;51.982;9.226;2023-04-22T08:33:25;99620.66;;;21.65;100.00
21644;BME280;10983;51.982;9.226;2023-04-22T08:35:54;99620.66;;;21.65;100.00
21644;BME280;10983;51.982;9.226;2023-04-22T08:38:21;99620.91;;;21.94;100.00
21644;BME280;10983;51.982;9.226;2023-04-22T08:40:49;99624.56;;;21.81;100.00
21644;BME280;10983;51.982;9.226;2023-04-22T08:43:17;99619.59;;;21.74;100.00
21644;BME280;10983;51.982;9.226;2023-04-22T08:45:45;99615.69;;;21.50;100.00
21644;BME280;10983;51.982;9.226;2023-04-22T08:48:13;99616.31;;;22.02;100.00
21644;BME280;10983;51.982;9.226;2023-04-22T08:50:41;99611.41;;;22.21;100.00
21644;BME280;10983;51.982;9.226;2023-04-22T08:53:10;99604.56;;;22.15;100.00
21644;BME280;10983;51.982;9.226;2023-04-22T08:55:37;99610.50;;;22.34;100.00
21644;BME280;10983;51.982;9.226;2023-04-22T08:58:06;99603.59;;;23.13;100.00
21644;BME280;10983;51.982;9.226;2023-04-22T09:00:34;99600.75;;;23.01;100.00
21644;BME280;10983;51.982;9.226;2023-04-22T09:03:01;99612.19;;;23.15;100.00
21644;BME280;10983;51.982;9.226;2023-04-22T09:05:32;99601.75;;;23.33;100.00
21644;BME280;10983;51.982;9.226;2023-04-22T09:08:01;99601.75;;;23.42;100.00
21644;BME280;10983;51.982;9.226;2023-04-22T09:10:30;99596.47;;;24.03;100.00
21644;BME280;10983;51.982;9.226;2023-04-22T09:13:00;99595.09;;;24.17;100.00
21644;BME280;10983;51.982;9.226;2023-04-22T09:15:29;99594.31;;;24.17;100.00
21644;BME280;10983;51.982;9.226;2023-04-22T09:17:57;99591.84;;;24.85;100.00
21644;BME280;10983;51.982;9.226;2023-04-22T09:20:26;99587.78;;;25.35;100.00
21644;BME280;10983;51.982;9.226;2023-04-22T09:22:55;99589.97;;;25.65;100.00
21644;BME280;10983;51.982;9.226;2023-04-22T09:25:25;99586.09;;;26.13;100.00
21644;BME280;10983;51.982;9.226;2023-04-22T09:27:56;99594.41;;;26.05;100.00
21644;BME280;10983;51.982;9.226;2023-04-22T09:30:26;99589.97;;;26.63;100.00
21644;BME280;10983;51.982;9.226;2023-04-22T09:32:55;99582.53;;;26.37;100.00
21644;BME280;10983;51.982;9.226;2023-04-22T09:35:27;99590.66;;;26.61;100.00
21644;BME280;10983;51.982;9.226;2023-04-22T09:37:55;99589.31;;;26.82;100.00
21644;BME280;10983;51.982;9.226;2023-04-22T09:40:23;99594.22;;;27.04;100.00
21644;BME280;10983;51.982;9.226;2023-04-22T09:42:54;99581.38;;;27.19;100.00
21644;BME280;10983;51.982;9.226;2023-04-22T09:45:30;99590.00;;;26.52;100.00
21644;BME280;10983;51.982;9.226;2023-04-22T09:48:01;99582.06;;;26.74;100.00
21644;BME280;10983;51.982;9.226;2023-04-22T09:50:29;99579.44;;;26.50;100.00
21644;BME280;10983;51.982;9.226;2023-04-22T09:52:58;99560.06;;;27.10;100.00
21644;BME280;10983;51.982;9.226;2023-04-22T09:55:27;99561.22;;;27.24;100.00
21644;BME280;10983;51.982;9.226;2023-04-22T09:57:56;99551.88;;;27.25;100.00
21644;BME280;10983;51.982;9.226;2023-04-22T10:00:27;99558.66;;;27.16;100.00
21644;BME280;10983;51.982;9.226;2023-04-22T10:02:57;99564.28;;;27.07;100.00
21644;BME280;10983;51.982;9.226;2023-04-22T10:05:24;99557.34;;;26.82;100.00
21644;BME280;10983;51.982;9.226;2023-04-22T10:07:52;99549.75;;;27.03;100.00
21644;BME280;10983;51.982;9.226;2023-04-22T10:10:19;99564.13;;;27.00;100.00
21644;BME280;10983;51.982;9.226;2023-04-22T10:12:47;99547.97;;;26.95;100.00
21644;BME280;10983;51.982;9.226;2023-04-22T10:15:16;99550.44;;;27.92;100.00
21644;BME280;10983;51.982;9.226;2023-04-22T10:17:45;99547.38;;;27.48;100.00
21644;BME280;10983;51.982;9.226;2023-04-22T10:20:16;99543.53;;;27.64;100.00
21644;BME280;10983;51.982;9.226;2023-04-22T10:22:46;99554.41;;;27.79;100.00
21644;BME280;10983;51.982;9.226;2023-04-22T10:25:20;99550.75;;;26.83;100.00
21644;BME280;10983;51.982;9.226;2023-04-22T10:27:52;99528.09;;;27.56;100.00
21644;BME280;10983;51.982;9.226;2023-04-22T10:30:26;99538.75;;;28.86;100.00
21644;BME280;10983;51.982;9.226;2023-04-22T10:32:54;99527.81;;;28.86;100.00
21644;BME280;10983;51.982;9.226;2023-04-22T10:35:27;99535.25;;;28.86;100.00
21644;BME280;10983;51.982;9.226;2023-04-22T10:37:56;99527.75;;;28.26;100.00
21644;BME280;10983;51.982;9.226;2023-04-22T10:40:23;99525.50;;;27.48;100.00
21644;BME280;10983;51.982;9.226;2023-04-22T10:42:51;99524.69;;;28.12;100.00
21644;BME280;10983;51.982;9.226;2023-04-22T10:45:23;99525.59;;;28.54;100.00
21644;BME280;10983;51.982;9.226;2023-04-22T10:47:51;99537.00;;;28.03;100.00
21644;BME280;10983;51.982;9.226;2023-04-22T10:50:22;99528.56;;;28.45;100.00
21644;BME280;10983;51.982;9.226;2023-04-22T10:52:54;99535.97;;;28.45;100.00
21644;BME280;10983;51.982;9.226;2023-04-22T10:55:22;99518.81;;;28.86;100.00
21644;BME280;10983;51.982;9.226;2023-04-22T10:57:52;99520.31;;;28.27;100.00
21644;BME280;10983;51.982;9.226;2023-04-22T11:00:30;99515.63;;;28.84;100.00
21644;BME280;10983;51.982;9.226;2023-04-22T11:03:17;99517.53;;;29.24;100.00
21644;BME280;10983;51.982;9.226;2023-04-22T11:06:11;99510.34;;;29.87;100.00
21644;BME280;10983;51.982;9.226;2023-04-22T11:08:44;99508.25;;;30.06;100.00
21644;BME280;10983;51.982;9.226;2023-04-22T11:11:12;99505.84;;;29.50;100.00
21644;BME280;10983;51.982;9.226;2023-04-22T11:13:40;99500.47;;;29.12;100.00
21644;BME280;10983;51.982;9.226;2023-04-22T11:16:09;99496.56;;;28.68;100.00
21644;BME280;10983;51.982;9.226;2023-04-22T11:18:36;99498.84;;;28.85;100.00
21644;BME280;10983;51.982;9.226;2023-04-22T11:21:05;99498.47;;;29.09;100.00
21644;BME280;10983;51.982;9.226;2023-04-22T11:23:34;99496.13;;;30.07;100.00
21644;BME280;10983;51.982;9.226;2023-04-22T11:26:04;99492.75;;;30.50;100.00
21644;BME280;10983;51.982;9.226;2023-04-22T11:28:32;99490.63;;;29.52;100.00
21644;BME280;10983;51.982;9.226;2023-04-22T11:31:00;99496.97;;;29.59;100.00
21644;BME280;10983;51.982;9.226;2023-04-22T11:33:28;99498.91;;;28.70;100.00
21644;BME280;10983;51.982;9.226;2023-04-22T11:35:56;99492.06;;;28.04;100.00
21644;BME280;10983;51.982;9.226;2023-04-22T11:38:23;99492.72;;;27.97;100.00
21644;BME280;10983;51.982;9.226;2023-04-22T11:40:53;99479.97;;;29.02;100.00
21644;BME280;10983;51.982;9.226;2023-04-22T11:43:24;99485.16;;;28.66;100.00
21644;BME280;10983;51.982;9.226;2023-04-22T11:45:54;99462.56;;;29.14;100.00
21644;BME280;10983;51.982;9.226;2023-04-22T11:48:22;99482.97;;;27.81;100.00
21644;BME280;10983;51.982;9.226;2023-04-22T11:51:06;99493.00;;;27.58;100.00
21644;BME280;10983;51.982;9.226;2023-04-22T11:53:35;99484.81;;;27.12;100.00
21644;BME280;10983;51.982;9.226;2023-04-22T11:56:05;99490.41;;;27.00;100.00
21644;BME280;10983;51.982;9.226;2023-04-22T11:58:37;99476.44;;;27.36;100.00
21644;BME280;10983;51.982;9.226;2023-04-22T12:01:05;99463.72;;;28.12;100.00
21644;BME280;10983;51.982;9.226;2023-04-22T12:03:33;99463.16;;;29.04;100.00
21644;BME280;10983;51.982;9.226;2023-04-22T12:06:03;99461.44;;;30.21;100.00
21644;BME280;10983;51.982;9.226;2023-04-22T12:08:33;99462.75;;;30.67;100.00
21644;BME280;10983;51.982;9.226;2023-04-22T12:11:03;99447.41;;;31.56;100.00
21644;BME280;10983;51.982;9.226;2023-04-22T12:13:40;99436.94;;;32.77;100.00
21644;BME280;10983;51.982;9.226;2023-04-22T12:16:09;99447.81;;;32.32;100.00
21644;BME280;10983;51.982;9.226;2023-04-22T12:18:39;99453.69;;;31.49;100.00
21644;BME280;10983;51.982;9.226;2023-04-22T12:21:09;99476.09;;;30.07;100.00
21644;BME280;10983;51.982;9.226;2023-04-22T12:23:41;99452.47;;;28.95;100.00
21644;BME280;10983;51.982;9.226;2023-04-22T12:26:09;99451.44;;;29.51;100.00
21644;BME280;10983;51.982;9.226;2023-04-22T12:28:39;99461.44;;;29.41;100.00
21644;BME280;10983;51.982;9.226;2023-04-22T12:31:07;99465.50;;;29.50;100.00
21644;BME280;10983;51.982;9.226;2023-04-22T12:33:36;99449.34;;;29.42;100.00
21644;BME280;10983;51.982;9.226;2023-04-22T12:36:04;99450.25;;;29.78;100.00
21644;BME280;10983;51.982;9.226;2023-04-22T12:38:32;99439.00;;;30.45;100.00
21644;BME280;10983;51.982;9.226;2023-04-22T12:41:00;99441.25;;;30.07;100.00
21644;BME280;10983;51.982;9.226;2023-04-22T12:43:28;99428.84;;;32.06;100.00